Time;durP1;ratioP1;P1;durP2;ratioP2;P2;SDS_P1;SDS_P2;PMS_P1;PMS_P2;Temp;Humidity;BMP_temperature;BMP_pressure;BME280_temperature;BME280_humidity;BME280_pressure;Samples;Min_cycle;Max_cycle;Signal;HPM_P1;HPM_P2
2022/02/26 00:01:14;;;;;;;38.33;10.05;;;6.70;99.90;;;;;;5091579;28;20209;-74
2022/02/26 00:03:39;;;;;;;38.72;9.68;;;6.60;99.90;;;;;;5092090;28;20235;-74
2022/02/26 00:06:06;;;;;;;35.65;10.85;;;6.50;99.90;;;;;;5102302;28;20254;-73
2022/02/26 00:08:31;;;;;;;40.30;12.55;;;6.50;99.90;;;;;;5077567;28;20182;-70
2022/02/26 00:10:57;;;;;;;40.97;13.75;;;6.40;99.90;;;;;;5091234;28;20212;-74
2022/02/26 00:13:24;;;;;;;41.47;13.05;;;6.30;99.90;;;;;;5074538;28;20182;-72
2022/02/26 00:15:50;;;;;;;39.35;12.35;;;6.30;99.90;;;;;;5100711;28;20178;-73
2022/02/26 00:18:16;;;;;;;36.72;12.75;;;6.20;99.90;;;;;;5080726;28;20194;-72
2022/02/26 00:20:41;;;;;;;47.58;13.32;;;6.20;99.90;;;;;;5067271;28;20185;-73
2022/02/26 00:23:07;;;;;;;38.90;7.65;;;6.10;99.90;;;;;;5086057;28;20212;-74
2022/02/26 00:25:33;;;;;;;32.28;7.05;;;6.10;99.90;;;;;;5098329;28;20186;-73
2022/02/26 00:27:58;;;;;;;39.83;9.77;;;6.00;99.90;;;;;;5095542;28;20613;-72
2022/02/26 00:30:24;;;;;;;32.42;8.90;;;6.00;99.90;;;;;;5064601;28;20182;-73
2022/02/26 00:32:50;;;;;;;31.90;8.70;;;6.00;99.90;;;;;;5083296;28;20232;-73
2022/02/26 00:35:16;;;;;;;33.22;7.05;;;5.90;99.90;;;;;;5079343;28;20186;-73
2022/02/26 00:37:41;;;;;;;30.33;8.18;;;5.80;99.90;;;;;;5099209;28;20233;-73
2022/02/26 00:40:08;;;;;;;30.95;7.50;;;5.80;99.90;;;;;;5081089;28;20611;-73
2022/02/26 00:42:34;;;;;;;30.55;7.55;;;5.80;99.90;;;;;;5095981;28;20202;-73
2022/02/26 00:44:59;;;;;;;32.03;6.90;;;5.70;99.90;;;;;;5099442;28;20231;-73
2022/02/26 00:47:25;;;;;;;34.67;7.77;;;5.70;99.90;;;;;;5077101;28;20862;-73
2022/02/26 00:49:51;;;;;;;30.42;6.80;;;6.10;99.90;;;;;;5095681;28;20402;-73
2022/02/26 00:52:30;;;;;;;30.30;7.10;;;6.50;99.90;;;;;;5098962;28;20404;-73
2022/02/26 00:54:57;;;;;;;31.58;8.15;;;6.70;99.90;;;;;;5077313;28;20426;-74
2022/02/26 00:57:23;;;;;;;35.45;7.22;;;6.80;99.90;;;;;;5087853;28;20415;-74
2022/02/26 00:59:49;;;;;;;39.70;8.57;;;6.90;99.90;;;;;;5057876;28;20427;-75
2022/02/26 01:02:17;;;;;;;37.40;7.67;;;6.90;99.90;;;;;;5076116;28;20941;-74
2022/02/26 01:04:43;;;;;;;35.70;7.32;;;6.90;99.90;;;;;;5091447;28;20533;-74
2022/02/26 01:07:09;;;;;;;32.67;6.97;;;7.00;99.90;;;;;;5094943;28;20382;-73
2022/02/26 01:09:36;;;;;;;33.70;6.07;;;7.00;99.90;;;;;;5088848;28;20426;-73
2022/02/26 01:12:03;;;;;;;35.75;7.03;;;7.00;99.90;;;;;;5096836;28;20429;-73
2022/02/26 01:14:29;;;;;;;29.25;7.00;;;7.00;99.90;;;;;;5088293;28;20432;-74
2022/02/26 01:16:55;;;;;;;33.03;6.50;;;7.00;99.90;;;;;;5075881;28;20405;-71
2022/02/26 01:19:21;;;;;;;28.63;6.30;;;7.00;99.90;;;;;;5088433;28;20896;-74
2022/02/26 01:21:47;;;;;;;32.97;5.75;;;7.10;99.90;;;;;;5100147;28;20832;-74
2022/02/26 01:24:13;;;;;;;32.10;5.70;;;7.10;99.90;;;;;;5066788;28;20513;-75
2022/02/26 01:26:39;;;;;;;30.10;5.78;;;7.00;99.90;;;;;;5101604;28;20738;-75
2022/02/26 01:29:05;;;;;;;32.13;5.72;;;7.00;99.90;;;;;;5098563;28;20398;-74
2022/02/26 01:31:33;;;;;;;35.53;6.78;;;6.90;99.90;;;;;;5079326;28;20402;-74
2022/02/26 01:34:00;;;;;;;35.47;6.60;;;6.90;99.90;;;;;;5082035;28;20868;-74
2022/02/26 01:36:26;;;;;;;31.85;6.20;;;6.90;99.90;;;;;;5089780;28;20418;-74
2022/02/26 01:38:52;;;;;;;28.83;6.17;;;6.90;99.90;;;;;;5090338;28;20426;-74
2022/02/26 01:41:18;;;;;;;26.15;5.93;;;6.90;99.90;;;;;;5094736;28;20412;-75
2022/02/26 01:43:44;;;;;;;30.80;6.77;;;6.90;99.90;;;;;;5097315;28;20451;-75
2022/02/26 01:46:10;;;;;;;28.35;6.97;;;6.90;99.90;;;;;;5089827;28;20406;-74
2022/02/26 01:48:36;;;;;;;31.50;8.07;;;6.80;99.90;;;;;;5100084;28;20503;-74
2022/02/26 01:51:03;;;;;;;30.70;6.77;;;6.80;99.90;;;;;;5092084;28;20970;-74
2022/02/26 01:53:29;;;;;;;31.58;6.38;;;6.80;99.90;;;;;;5090017;28;20793;-74
2022/02/26 01:55:54;;;;;;;28.20;7.38;;;6.70;99.90;;;;;;5088666;28;20479;-74
2022/02/26 01:58:20;;;;;;;35.23;9.50;;;6.80;99.90;;;;;;5086222;28;20416;-74
2022/02/26 02:00:46;;;;;;;33.70;11.10;;;6.70;99.90;;;;;;5069595;28;20412;-74
2022/02/26 02:03:12;;;;;;;45.28;17.27;;;6.70;99.90;;;;;;5070113;28;20906;-74
2022/02/26 02:05:38;;;;;;;49.50;20.60;;;6.70;99.90;;;;;;5089328;28;20425;-75
2022/02/26 02:08:04;;;;;;;57.13;22.60;;;6.70;99.90;;;;;;5095085;28;20485;-74
2022/02/26 02:10:30;;;;;;;71.78;28.23;;;6.70;99.90;;;;;;5070188;28;20425;-74
2022/02/26 02:12:56;;;;;;;42.70;15.63;;;6.60;99.90;;;;;;5087291;28;20442;-74
2022/02/26 02:15:41;;;;;;;53.40;19.33;;;6.50;99.90;;;;;;5096505;28;20509;-75
2022/02/26 02:18:10;;;;;;;52.90;23.05;;;6.50;99.90;;;;;;5073185;28;20431;-72
2022/02/26 02:20:36;;;;;;;54.88;24.20;;;6.50;99.90;;;;;;5091641;28;20409;-75
2022/02/26 02:23:01;;;;;;;52.92;26.02;;;6.50;99.90;;;;;;5085769;28;20408;-75
2022/02/26 02:25:30;;;;;;;66.73;26.67;;;6.50;99.90;;;;;;5088873;28;20420;-74
2022/02/26 02:27:57;;;;;;;60.30;26.73;;;6.40;99.70;;;;;;5050606;28;20413;-74
2022/02/26 02:30:25;;;;;;;55.95;23.75;;;6.40;99.90;;;;;;5085669;28;20755;-75
2022/02/26 02:32:51;;;;;;;62.58;26.83;;;6.30;99.90;;;;;;5091082;28;20402;-75
2022/02/26 02:35:43;;;;;;;66.05;27.35;;;6.30;99.90;;;;;;5097727;28;20942;-74
2022/02/26 02:38:11;;;;;;;62.58;26.67;;;6.30;99.80;;;;;;5087779;28;20431;-76
2022/02/26 02:40:38;;;;;;;57.88;25.83;;;6.30;99.90;;;;;;5085204;28;20433;-75
2022/02/26 02:43:05;;;;;;;54.80;25.33;;;6.30;99.90;;;;;;5071047;28;20886;-72
2022/02/26 02:45:31;;;;;;;50.25;20.02;;;6.30;99.90;;;;;;5087433;28;20458;-74
2022/02/26 02:47:57;;;;;;;48.47;19.20;;;6.30;99.90;;;;;;5086313;28;20482;-75
2022/02/26 02:50:23;;;;;;;52.28;22.35;;;6.20;99.70;;;;;;5087286;28;20413;-73
2022/02/26 02:52:49;;;;;;;55.22;19.50;;;6.20;99.90;;;;;;5095347;28;20410;-74
2022/02/26 02:55:16;;;;;;;47.50;18.13;;;6.10;99.90;;;;;;5092278;28;20424;-74
2022/02/26 02:57:45;;;;;;;43.65;16.27;;;6.20;99.90;;;;;;5090773;28;20414;-74
2022/02/26 03:00:14;;;;;;;45.72;15.55;;;6.20;99.90;;;;;;5062536;28;20753;-74
2022/02/26 03:02:41;;;;;;;41.45;13.43;;;6.10;99.90;;;;;;5094705;28;20414;-74
2022/02/26 03:05:07;;;;;;;38.78;12.73;;;6.20;99.90;;;;;;5077569;28;20913;-73
2022/02/26 03:07:33;;;;;;;34.90;11.03;;;6.20;99.90;;;;;;5101231;28;20404;-74
2022/02/26 03:09:59;;;;;;;39.65;12.88;;;6.20;99.90;;;;;;5085385;28;20766;-74
2022/02/26 03:12:24;;;;;;;48.45;22.15;;;6.20;99.90;;;;;;5070592;28;20406;-73
2022/02/26 03:14:50;;;;;;;44.70;19.33;;;6.30;99.90;;;;;;5073571;28;20917;-72
2022/02/26 03:17:16;;;;;;;50.33;20.42;;;6.20;99.90;;;;;;5087375;28;20425;-73
2022/02/26 03:19:42;;;;;;;46.23;20.63;;;6.30;99.90;;;;;;5094884;28;20417;-74
2022/02/26 03:22:08;;;;;;;43.30;17.40;;;6.20;99.90;;;;;;5086750;28;20474;-74
2022/02/26 03:24:34;;;;;;;34.90;13.18;;;6.20;99.90;;;;;;5067755;28;20927;-74
2022/02/26 03:27:00;;;;;;;39.58;11.95;;;6.20;99.90;;;;;;5088322;28;20850;-72
2022/02/26 03:29:28;;;;;;;36.57;11.60;;;6.20;99.90;;;;;;5068180;28;20472;-72
2022/02/26 03:31:55;;;;;;;47.58;18.35;;;6.20;99.90;;;;;;5074375;28;20763;-72
2022/02/26 03:34:20;;;;;;;57.67;18.77;;;6.10;99.90;;;;;;5082176;28;20455;-71
2022/02/26 03:36:51;;;;;;;48.58;17.50;;;6.10;99.90;;;;;;5103838;28;20404;-71
2022/02/26 03:39:18;;;;;;;44.38;15.45;;;6.10;99.90;;;;;;5100171;28;20439;-71
2022/02/26 03:41:44;;;;;;;43.03;14.98;;;6.00;99.90;;;;;;5089947;28;20524;-72
2022/02/26 03:44:09;;;;;;;40.35;12.25;;;6.00;99.90;;;;;;5097566;28;20901;-73
2022/02/26 03:46:36;;;;;;;44.37;16.10;;;6.00;99.90;;;;;;5088895;28;20398;-72
2022/02/26 03:49:04;;;;;;;53.90;22.13;;;6.00;99.90;;;;;;5079195;28;20500;-73
2022/02/26 03:51:34;;;;;;;55.40;21.98;;;6.00;99.90;;;;;;5070012;28;20476;-73
2022/02/26 03:54:00;;;;;;;42.08;14.27;;;6.00;99.90;;;;;;5073784;28;20397;-73
2022/02/26 03:56:27;;;;;;;35.75;11.57;;;5.90;99.90;;;;;;5093536;28;20407;-72
2022/02/26 03:58:54;;;;;;;39.13;11.75;;;5.90;99.90;;;;;;5093786;28;20894;-73
2022/02/26 04:01:20;;;;;;;36.13;10.25;;;5.90;99.90;;;;;;5071615;28;20422;-73
2022/02/26 04:03:46;;;;;;;39.72;11.52;;;5.90;99.90;;;;;;5091062;28;20727;-71
2022/02/26 04:06:13;;;;;;;33.03;11.13;;;5.90;99.90;;;;;;5096396;28;20434;-72
2022/02/26 04:08:39;;;;;;;32.57;8.33;;;5.90;99.90;;;;;;5070154;28;20460;-73
2022/02/26 04:11:06;;;;;;;37.13;11.15;;;5.90;99.90;;;;;;5075401;28;20457;-72
2022/02/26 04:13:32;;;;;;;32.20;11.30;;;5.90;99.90;;;;;;5080844;28;20444;-73
2022/02/26 04:15:58;;;;;;;32.90;10.63;;;5.90;99.90;;;;;;5077066;28;20829;-72
2022/02/26 04:18:24;;;;;;;39.80;10.65;;;5.90;99.90;;;;;;5090152;28;20445;-73
2022/02/26 04:20:49;;;;;;;32.80;10.07;;;5.90;99.90;;;;;;5065230;28;20436;-74
2022/02/26 04:23:17;;;;;;;34.75;9.05;;;5.80;99.90;;;;;;5093718;28;20414;-73
2022/02/26 04:25:42;;;;;;;36.07;9.30;;;5.80;99.90;;;;;;5088291;28;20963;-74
2022/02/26 04:28:08;;;;;;;31.90;8.45;;;5.80;99.90;;;;;;5089818;28;20421;-73
2022/02/26 04:30:35;;;;;;;42.77;9.77;;;5.80;99.90;;;;;;5086677;28;20410;-73
2022/02/26 04:33:00;;;;;;;32.88;8.60;;;5.80;99.90;;;;;;5090264;28;20416;-70
2022/02/26 04:35:26;;;;;;;31.07;8.63;;;5.80;99.90;;;;;;5082998;28;20413;-74
2022/02/26 04:37:52;;;;;;;32.40;8.63;;;5.70;99.90;;;;;;5086707;28;20882;-73
2022/02/26 04:40:18;;;;;;;35.25;9.05;;;5.70;99.90;;;;;;5088417;28;20409;-74
2022/02/26 04:42:44;;;;;;;35.00;9.20;;;5.70;99.90;;;;;;5075742;28;20478;-75
2022/02/26 04:45:11;;;;;;;30.15;8.30;;;5.70;99.90;;;;;;5066145;28;20444;-72
2022/02/26 04:47:39;;;;;;;30.00;7.50;;;5.70;99.90;;;;;;5097806;28;20409;-74
2022/02/26 04:50:07;;;;;;;32.63;7.40;;;5.70;99.90;;;;;;5091950;28;20414;-75
2022/02/26 04:52:33;;;;;;;27.35;7.22;;;5.60;99.90;;;;;;5089409;28;20410;-75
2022/02/26 04:54:58;;;;;;;29.60;5.83;;;5.60;99.90;;;;;;5088146;28;20538;-75
2022/02/26 04:57:24;;;;;;;28.98;5.43;;;5.60;99.90;;;;;;5088788;28;20409;-74
2022/02/26 04:59:50;;;;;;;27.67;5.60;;;5.60;99.90;;;;;;5089887;28;20414;-74
2022/02/26 05:02:15;;;;;;;25.77;5.03;;;5.60;99.90;;;;;;5095456;28;20808;-73
2022/02/26 05:04:41;;;;;;;20.70;4.93;;;5.60;99.90;;;;;;5097216;28;20422;-74
2022/02/26 05:07:07;;;;;;;23.40;5.20;;;5.60;99.90;;;;;;5097779;28;20443;-74
2022/02/26 05:09:32;;;;;;;28.45;4.95;;;5.50;99.90;;;;;;5094796;28;20502;-73
2022/02/26 05:11:58;;;;;;;27.37;5.20;;;5.40;99.90;;;;;;5093639;28;20463;-73
2022/02/26 05:14:24;;;;;;;19.20;4.53;;;5.40;99.90;;;;;;5096370;28;20729;-73
2022/02/26 05:16:50;;;;;;;26.52;5.45;;;5.40;99.90;;;;;;5094105;28;20453;-75
2022/02/26 05:19:15;;;;;;;26.23;5.20;;;5.30;99.90;;;;;;5097246;28;20401;-73
2022/02/26 05:21:41;;;;;;;22.23;4.50;;;5.30;99.90;;;;;;5070300;28;20925;-76
2022/02/26 05:24:06;;;;;;;24.97;5.23;;;5.30;99.90;;;;;;5087618;28;20569;-73
2022/02/26 05:26:33;;;;;;;24.33;5.03;;;5.20;99.90;;;;;;5088902;28;20521;-74
2022/02/26 05:28:58;;;;;;;19.90;5.25;;;5.20;99.90;;;;;;5095453;28;20415;-74
2022/02/26 05:31:24;;;;;;;22.77;5.63;;;5.10;99.90;;;;;;5088129;28;20421;-75
2022/02/26 05:33:50;;;;;;;26.13;5.85;;;5.10;99.90;;;;;;5070868;28;20914;-75
2022/02/26 05:36:15;;;;;;;27.57;5.60;;;5.10;99.90;;;;;;5070415;28;20987;-73
2022/02/26 05:38:41;;;;;;;19.95;5.65;;;5.10;99.90;;;;;;5094363;28;20854;-73
2022/02/26 05:41:07;;;;;;;25.00;6.10;;;5.10;99.90;;;;;;5071082;28;20414;-72
2022/02/26 05:43:34;;;;;;;23.33;6.13;;;5.10;99.90;;;;;;5093139;28;20408;-73
2022/02/26 05:46:00;;;;;;;20.10;5.72;;;5.10;99.90;;;;;;5097226;28;20420;-73
2022/02/26 05:48:25;;;;;;;21.95;5.93;;;5.10;99.90;;;;;;5097770;28;20394;-73
2022/02/26 05:50:51;;;;;;;21.47;5.77;;;5.10;99.90;;;;;;5094232;28;20441;-72
2022/02/26 05:53:17;;;;;;;27.67;6.57;;;5.10;99.90;;;;;;5098306;28;20507;-72
2022/02/26 05:55:43;;;;;;;29.95;6.75;;;5.10;99.90;;;;;;5091979;28;20408;-74
2022/02/26 05:58:09;;;;;;;27.80;6.78;;;5.10;99.90;;;;;;5095273;28;20408;-73
2022/02/26 06:00:34;;;;;;;27.53;6.57;;;5.10;99.90;;;;;;5087305;28;20409;-73
2022/02/26 06:03:00;;;;;;;25.65;6.40;;;5.20;99.90;;;;;;5092942;28;20426;-73
2022/02/26 06:05:25;;;;;;;25.47;6.90;;;5.20;99.90;;;;;;5092110;28;20423;-71
2022/02/26 06:07:51;;;;;;;25.85;6.80;;;5.20;99.90;;;;;;5099274;28;20397;-77
2022/02/26 06:10:17;;;;;;;25.20;6.80;;;5.20;99.90;;;;;;5089518;28;20430;-76
2022/02/26 06:12:43;;;;;;;32.28;6.10;;;5.20;99.90;;;;;;5095648;28;20206;-71
2022/02/26 06:15:09;;;;;;;19.48;6.18;;;4.70;99.90;;;;;;5085799;28;20406;-76
2022/02/26 06:17:36;;;;;;;29.98;6.80;;;4.70;99.90;;;;;;5082253;28;20404;-76
2022/02/26 06:20:04;;;;;;;25.27;6.90;;;4.80;99.90;;;;;;5082439;28;20915;-76
2022/02/26 06:22:29;;;;;;;23.53;6.63;;;4.80;99.90;;;;;;5076986;28;20495;-79
2022/02/26 06:24:55;;;;;;;23.55;6.30;;;4.80;99.90;;;;;;5074153;28;20489;-78
2022/02/26 06:27:21;;;;;;;23.88;7.20;;;4.80;99.90;;;;;;5080857;28;20905;-77
2022/02/26 06:29:47;;;;;;;18.57;6.83;;;4.80;99.90;;;;;;5101638;28;20400;-76
2022/02/26 06:32:12;;;;;;;23.67;6.53;;;4.80;99.90;;;;;;5097834;28;20415;-78
2022/02/26 06:34:38;;;;;;;20.10;6.70;;;4.80;99.90;;;;;;5094643;28;20435;-79
2022/02/26 06:37:04;;;;;;;21.10;7.13;;;4.80;99.90;;;;;;5099152;28;20471;-76
2022/02/26 06:39:29;;;;;;;22.33;6.83;;;4.80;99.90;;;;;;5100598;28;20772;-76
2022/02/26 06:41:55;;;;;;;22.30;7.85;;;4.80;99.90;;;;;;5079624;28;20400;-76
2022/02/26 06:44:22;;;;;;;21.77;7.57;;;4.80;99.90;;;;;;5077755;28;20412;-79
2022/02/26 06:46:48;;;;;;;20.88;7.72;;;4.80;99.90;;;;;;5090311;28;20415;-75
2022/02/26 06:49:15;;;;;;;20.73;7.60;;;4.80;99.90;;;;;;5095909;28;20404;-77
2022/02/26 06:51:41;;;;;;;21.73;8.10;;;4.90;99.90;;;;;;5098586;28;20394;-76
2022/02/26 06:54:07;;;;;;;19.98;7.60;;;4.90;99.90;;;;;;5076985;28;20413;-74
2022/02/26 06:56:33;;;;;;;24.60;8.05;;;4.90;99.90;;;;;;5081820;28;20810;-75
2022/02/26 06:58:59;;;;;;;23.65;8.88;;;4.90;99.90;;;;;;5095426;28;20420;-79
2022/02/26 07:01:25;;;;;;;23.75;8.98;;;4.90;99.90;;;;;;5065528;28;20411;-76
2022/02/26 07:03:51;;;;;;;23.10;8.60;;;4.90;99.90;;;;;;5071675;28;20413;-75
2022/02/26 07:06:17;;;;;;;22.67;8.63;;;4.90;99.90;;;;;;5098403;28;20388;-71
2022/02/26 07:08:43;;;;;;;20.25;7.68;;;4.90;99.90;;;;;;5103249;28;20407;-74
2022/02/26 07:11:09;;;;;;;17.17;7.73;;;4.90;99.90;;;;;;5074151;28;20402;-74
2022/02/26 07:13:34;;;;;;;15.95;7.78;;;4.90;99.90;;;;;;5097831;28;20437;-73
2022/02/26 07:16:00;;;;;;;21.73;8.55;;;4.90;99.90;;;;;;5097116;28;20759;-76
2022/02/26 07:18:26;;;;;;;21.30;8.97;;;4.90;99.90;;;;;;5093807;28;20750;-74
2022/02/26 07:20:52;;;;;;;18.73;8.35;;;4.90;99.90;;;;;;5095558;28;20399;-76
2022/02/26 07:23:18;;;;;;;22.37;9.37;;;5.00;99.90;;;;;;5090471;28;20910;-76
2022/02/26 07:25:45;;;;;;;20.70;9.82;;;5.00;99.90;;;;;;5078518;28;20883;-74
2022/02/26 07:28:12;;;;;;;24.07;9.63;;;5.00;99.90;;;;;;5099154;28;20403;-77
2022/02/26 07:30:38;;;;;;;21.55;9.60;;;5.00;99.90;;;;;;5087533;28;20440;-77
2022/02/26 07:33:05;;;;;;;25.45;9.23;;;5.10;99.90;;;;;;5087776;28;20445;-74
2022/02/26 07:35:31;;;;;;;17.50;8.98;;;5.10;99.90;;;;;;5090011;28;20538;-77
2022/02/26 07:37:56;;;;;;;23.13;8.97;;;5.10;99.90;;;;;;5084606;28;20453;-76
2022/02/26 07:40:22;;;;;;;24.27;9.70;;;5.10;99.90;;;;;;5092347;28;20527;-77
2022/02/26 07:42:48;;;;;;;23.80;10.00;;;5.10;99.90;;;;;;5073617;28;20405;-76
2022/02/26 07:45:15;;;;;;;26.07;10.00;;;5.20;99.90;;;;;;5088821;28;20439;-76
2022/02/26 07:47:41;;;;;;;25.73;10.15;;;5.20;99.90;;;;;;5093574;28;20440;-74
2022/02/26 07:50:07;;;;;;;30.30;11.77;;;5.30;99.90;;;;;;5073092;28;20878;-75
2022/02/26 07:52:33;;;;;;;28.20;10.75;;;5.30;99.90;;;;;;5090086;28;20527;-77
2022/02/26 07:55:04;;;;;;;30.30;11.77;;;5.40;99.90;;;;;;5086174;28;21270;-76
2022/02/26 07:57:30;;;;;;;28.77;11.10;;;5.40;99.90;;;;;;5094419;28;20759;-75
2022/02/26 07:59:57;;;;;;;24.17;10.73;;;5.50;99.90;;;;;;5071918;28;20417;-77
2022/02/26 08:02:23;;;;;;;26.63;11.43;;;5.60;99.90;;;;;;5079259;28;20630;-74
2022/02/26 08:04:49;;;;;;;26.30;11.07;;;5.70;99.90;;;;;;5082299;28;20402;-74
2022/02/26 08:07:15;;;;;;;31.23;11.57;;;5.70;99.90;;;;;;5087149;28;20544;-75
2022/02/26 08:09:42;;;;;;;24.50;10.23;;;5.80;99.90;;;;;;5086657;28;20194;-74
2022/02/26 08:12:10;;;;;;;35.50;9.88;;;5.50;99.90;;;;;;5091988;28;20238;-74
2022/02/26 08:14:37;;;;;;;18.55;9.13;;;5.30;99.90;;;;;;5093466;28;20185;-76
2022/02/26 08:17:03;;;;;;;28.25;10.32;;;5.10;99.90;;;;;;5082093;28;20684;-77
2022/02/26 08:19:29;;;;;;;30.40;11.05;;;5.00;99.90;;;;;;5084451;28;20185;-78
2022/02/26 08:21:55;;;;;;;46.28;11.85;;;5.10;99.90;;;;;;5080731;28;20572;-77
2022/02/26 08:24:20;;;;;;;25.55;9.88;;;5.10;99.90;;;;;;5083262;28;20392;-77
2022/02/26 08:26:46;;;;;;;20.33;7.93;;;5.80;99.90;;;;;;5077051;28;20390;-76
2022/02/26 08:29:12;;;;;;;19.17;7.55;;;6.80;99.90;;;;;;5087940;28;21211;-76
2022/02/26 08:31:38;;;;;;;19.27;7.03;;;8.00;99.90;;;;;;5103709;27;20502;-75
2022/02/26 08:34:04;;;;;;;20.75;6.32;;;9.60;99.90;;;;;;5089188;28;20519;-72
2022/02/26 08:36:30;;;;;;;19.15;6.07;;;11.20;99.50;;;;;;5092595;28;20505;-73
2022/02/26 08:38:55;;;;;;;19.58;5.80;;;12.60;96.10;;;;;;5101681;28;20528;-76
2022/02/26 08:41:21;;;;;;;19.83;5.85;;;13.80;92.10;;;;;;5088802;28;20506;-73
2022/02/26 08:43:47;;;;;;;21.15;6.15;;;14.80;87.90;;;;;;5071957;28;20405;-77
2022/02/26 08:46:12;;;;;;;16.87;5.60;;;15.90;81.50;;;;;;5069386;28;20761;-75
2022/02/26 08:48:38;;;;;;;19.35;5.50;;;16.80;75.80;;;;;;5071655;28;20932;-73
2022/02/26 08:51:04;;;;;;;18.17;5.47;;;17.80;70.50;;;;;;5072142;28;20413;-72
2022/02/26 08:53:29;;;;;;;18.03;5.57;;;18.90;65.30;;;;;;5091490;28;20890;-73
2022/02/26 08:55:55;;;;;;;22.05;5.00;;;20.00;58.70;;;;;;5085326;28;21088;-74
2022/02/26 08:58:22;;;;;;;15.82;4.53;;;20.90;55.10;;;;;;5091341;28;20402;-73
2022/02/26 09:00:49;;;;;;;14.43;4.95;;;21.50;53.50;;;;;;5086620;28;20405;-73
2022/02/26 09:03:15;;;;;;;21.50;4.85;;;21.80;51.60;;;;;;5089799;28;20425;-73
2022/02/26 09:05:41;;;;;;;17.27;4.90;;;22.00;50.00;;;;;;5089528;28;20492;-73
2022/02/26 09:08:07;;;;;;;15.00;4.90;;;22.20;49.20;;;;;;5089260;28;20501;-73
2022/02/26 09:10:33;;;;;;;17.77;4.80;;;22.40;48.90;;;;;;5089076;28;20414;-73
2022/02/26 09:12:58;;;;;;;14.57;5.00;;;22.40;48.00;;;;;;5089749;28;21160;-74
2022/02/26 09:15:24;;;;;;;21.40;6.23;;;22.30;48.00;;;;;;5088153;28;20425;-73
2022/02/26 09:17:50;;;;;;;15.15;5.03;;;22.10;48.20;;;;;;5090931;28;20801;-70
2022/02/26 09:20:16;;;;;;;15.57;4.80;;;21.80;48.10;;;;;;5088276;28;20417;-71
2022/02/26 09:22:41;;;;;;;15.40;5.07;;;21.50;48.60;;;;;;5090687;28;20797;-71
2022/02/26 09:25:08;;;;;;;15.18;5.20;;;21.20;50.10;;;;;;5088345;28;20428;-71
2022/02/26 09:27:34;;;;;;;15.75;4.65;;;20.90;49.90;;;;;;5089557;28;20414;-72
2022/02/26 09:29:59;;;;;;;13.80;4.67;;;20.60;50.50;;;;;;5087688;28;20424;-72
2022/02/26 09:32:27;;;;;;;17.03;4.80;;;20.30;51.50;;;;;;5090551;28;20398;-70
2022/02/26 09:34:54;;;;;;;16.63;5.20;;;20.10;52.70;;;;;;5086630;28;20760;-72
2022/02/26 09:37:19;;;;;;;12.43;4.30;;;19.80;52.20;;;;;;5081386;28;20415;-70
2022/02/26 09:39:45;;;;;;;13.50;4.30;;;19.60;53.20;;;;;;5068148;28;20469;-72
2022/02/26 09:42:11;;;;;;;15.63;4.95;;;19.40;53.50;;;;;;5069474;28;20417;-72
2022/02/26 09:44:37;;;;;;;13.20;4.40;;;19.20;53.70;;;;;;5067518;28;20412;-72
2022/02/26 09:47:03;;;;;;;14.57;4.75;;;19.10;54.60;;;;;;5070142;28;20400;-72
2022/02/26 09:49:29;;;;;;;11.52;4.15;;;19.00;54.80;;;;;;5065577;28;20419;-68
2022/02/26 09:51:55;;;;;;;15.23;4.47;;;18.90;55.00;;;;;;5072778;28;20887;-71
2022/02/26 09:54:20;;;;;;;13.60;4.37;;;18.80;55.40;;;;;;5071676;28;20435;-73
2022/02/26 09:56:46;;;;;;;15.70;4.85;;;18.80;55.40;;;;;;5079905;28;20453;-75
2022/02/26 09:59:13;;;;;;;13.60;4.60;;;18.60;56.40;;;;;;5058366;28;20746;-74
2022/02/26 10:01:59;;;;;;;14.82;4.85;;;18.60;57.10;;;;;;5078357;28;20415;-74
2022/02/26 10:04:25;;;;;;;14.63;4.93;;;18.50;56.00;;;;;;5068745;28;20410;-73
2022/02/26 10:06:51;;;;;;;14.60;4.65;;;18.40;57.70;;;;;;5076681;28;20402;-74
2022/02/26 10:09:17;;;;;;;10.10;4.00;;;18.30;57.60;;;;;;5069993;28;20730;-74
2022/02/26 10:11:42;;;;;;;23.08;5.13;;;18.10;58.10;;;;;;5067252;28;20408;-75
2022/02/26 10:14:11;;;;;;;13.23;4.60;;;18.10;58.50;;;;;;5066938;28;20967;-72
2022/02/26 10:16:54;;;;;;;16.25;5.10;;;17.80;59.50;;;;;;5070782;28;20411;-75
2022/02/26 10:19:31;;;;;;;17.17;5.25;;;17.30;61.10;;;;;;5078632;28;20413;-72
2022/02/26 10:21:59;;;;;;;11.82;4.30;;;16.80;62.60;;;;;;5068048;28;20900;-73
2022/02/26 10:24:27;;;;;;;14.20;4.32;;;16.20;62.40;;;;;;5067278;28;20420;-73
2022/02/26 10:26:57;;;;;;;15.85;3.75;;;15.70;66.40;;;;;;5079320;28;20439;-72
2022/02/26 10:29:23;;;;;;;14.13;4.13;;;15.40;67.10;;;;;;5077130;28;20404;-74
2022/02/26 10:31:54;;;;;;;13.38;4.57;;;15.10;67.30;;;;;;5084237;28;20421;-73
2022/02/26 10:34:43;;;;;;;16.00;5.70;;;14.80;67.80;;;;;;5070701;28;20464;-72
2022/02/26 10:37:11;;;;;;;18.00;5.28;;;14.50;69.20;;;;;;5070041;28;20455;-73
2022/02/26 10:39:44;;;;;;;14.63;4.93;;;14.20;72.10;;;;;;5078754;28;20429;-72
2022/02/26 10:42:19;;;;;;;12.63;4.77;;;14.10;72.00;;;;;;5091086;28;20453;-70
2022/02/26 10:44:57;;;;;;;15.00;5.60;;;14.00;73.10;;;;;;5092411;28;20406;-73
2022/02/26 10:47:28;;;;;;;11.55;4.60;;;13.80;72.40;;;;;;5080797;28;20922;-75
2022/02/26 10:49:54;;;;;;;14.87;4.90;;;13.80;74.70;;;;;;5075441;28;20403;-73
2022/02/26 10:52:20;;;;;;;15.23;4.30;;;13.80;75.60;;;;;;5072721;28;20442;-73
2022/02/26 10:54:55;;;;;;;14.00;4.65;;;13.80;73.80;;;;;;5082771;28;20421;-74
2022/02/26 10:57:21;;;;;;;13.67;5.20;;;13.80;73.60;;;;;;5080021;28;20436;-73
2022/02/26 10:59:53;;;;;;;14.10;4.35;;;13.70;74.90;;;;;;5096792;28;20409;-75
2022/02/26 11:02:25;;;;;;;14.30;5.20;;;13.70;74.40;;;;;;5078176;28;20426;-73
2022/02/26 11:04:53;;;;;;;16.75;5.70;;;13.70;76.00;;;;;;5072296;28;20501;-72
2022/02/26 11:07:19;;;;;;;18.20;5.85;;;13.70;77.80;;;;;;5078281;28;20886;-71
2022/02/26 11:09:47;;;;;;;17.73;5.22;;;13.80;77.20;;;;;;5090213;28;21310;-75
2022/02/26 11:12:16;;;;;;;13.57;5.03;;;13.80;77.70;;;;;;5077621;28;20400;-72
2022/02/26 11:14:45;;;;;;;12.67;4.53;;;13.80;75.30;;;;;;5085245;28;20442;-74
2022/02/26 11:17:13;;;;;;;11.83;4.60;;;13.80;74.80;;;;;;5072435;28;20504;-72
2022/02/26 11:19:43;;;;;;;11.50;4.68;;;13.80;74.50;;;;;;5069161;28;20506;-72
2022/02/26 11:22:10;;;;;;;13.27;4.30;;;13.80;74.20;;;;;;5088614;28;20457;-73
2022/02/26 11:24:37;;;;;;;15.93;4.40;;;13.70;75.20;;;;;;5086773;28;20418;-75
2022/02/26 11:27:03;;;;;;;12.30;4.18;;;13.70;76.60;;;;;;5088842;28;20413;-76
2022/02/26 11:29:29;;;;;;;14.95;4.20;;;13.70;75.50;;;;;;5092520;28;20400;-74
2022/02/26 11:32:11;;;;;;;15.60;4.32;;;13.70;74.80;;;;;;5083043;28;20406;-75
2022/02/26 11:34:38;;;;;;;13.13;3.80;;;13.60;75.00;;;;;;5066632;28;20421;-73
2022/02/26 11:37:12;;;;;;;12.85;3.88;;;13.70;73.40;;;;;;5092808;28;20924;-72
2022/02/26 11:39:41;;;;;;;12.23;3.72;;;13.70;73.80;;;;;;5087482;28;20472;-73
2022/02/26 11:42:18;;;;;;;13.93;4.13;;;13.70;73.40;;;;;;5086847;28;20414;-74
2022/02/26 11:44:59;;;;;;;12.23;4.10;;;13.80;74.50;;;;;;5071027;28;20424;-73
2022/02/26 11:47:53;;;;;;;12.32;3.30;;;13.90;72.10;;;;;;5094982;28;20424;-74
2022/02/26 11:50:25;;;;;;;11.73;3.07;;;13.90;74.40;;;;;;5079087;28;20747;-74
2022/02/26 11:53:01;;;;;;;11.75;3.22;;;14.00;69.00;;;;;;5076358;28;21002;-73
2022/02/26 11:55:43;;;;;;;11.10;3.10;;;14.00;69.10;;;;;;5077322;28;20448;-74
2022/02/26 11:58:19;;;;;;;11.48;3.30;;;14.10;70.00;;;;;;5074737;28;20401;-74
2022/02/26 12:00:53;;;;;;;11.10;3.13;;;14.10;69.10;;;;;;5091462;28;21272;-73
2022/02/26 12:03:21;;;;;;;12.52;3.45;;;14.20;67.50;;;;;;5100065;28;20432;-75
2022/02/26 12:05:50;;;;;;;14.50;3.97;;;14.20;68.70;;;;;;5096191;28;20881;-75
2022/02/26 12:08:20;;;;;;;10.07;3.33;;;14.20;69.70;;;;;;5073919;28;20743;-74
2022/02/26 12:10:56;;;;;;;12.45;3.80;;;14.30;68.20;;;;;;5092678;28;20916;-74
2022/02/26 12:13:28;;;;;;;11.85;3.20;;;14.30;69.70;;;;;;5094171;28;20405;-74
2022/02/26 12:16:21;;;;;;;10.48;2.90;;;14.40;68.30;;;;;;5071107;28;20414;-74
2022/02/26 12:18:58;;;;;;;12.48;3.05;;;14.40;62.80;;;;;;5089843;28;20477;-75
2022/02/26 12:21:31;;;;;;;10.38;3.10;;;14.30;63.40;;;;;;5087918;28;20435;-74
2022/02/26 12:24:15;;;;;;;9.90;2.60;;;14.30;64.20;;;;;;5104108;28;20386;-74
2022/02/26 12:26:40;;;;;;;9.67;2.43;;;14.40;61.80;;;;;;5072621;28;20462;-75
2022/02/26 12:29:07;;;;;;;9.95;2.47;;;14.50;56.90;;;;;;5095275;28;20397;-75
2022/02/26 12:31:40;;;;;;;11.05;2.97;;;14.50;57.40;;;;;;5097699;28;20411;-75
2022/02/26 12:34:12;;;;;;;9.10;2.90;;;14.40;59.90;;;;;;5091152;28;20429;-74
2022/02/26 12:37:07;;;;;;;11.07;3.00;;;14.50;59.40;;;;;;5083100;28;20541;-74
2022/02/26 12:39:39;;;;;;;8.77;2.47;;;14.50;59.30;;;;;;5071551;28;20462;-74
2022/02/26 12:42:06;;;;;;;10.75;3.20;;;14.60;59.20;;;;;;5097038;28;20409;-74